CYFR

Fort Resolution Airport

Fort Resolution, Northwest Territories, Canada
METAR CYFR 232200Z 29005KT 240V310 15SM BKN046 OVC280 M15/M18 A2947 RMK SC5CS3 SLP998
Observed Flight Rules
Feb-23 @ 22:00 UTC (32 minutes ago) Visual Flight Rules
Wind Visibility Clouds
290° at 5 knots 15 miles
  • Broken at 4,600' AGL
  • Overcast at 28,000' AGL
Temperatures Readings
Current -15°C / 5°F
Dewpoint -18°C / -0°F
Humidity 78%
Altimeter 29.47" Hg
Pressure 999.8 hPa
Elevation 164
METAR CYFR 232200Z 29005KT 240V310 15SM BKN046 OVC280 M15/M18 A2947 RMK SC5CS3 SLP998
Observed Flight Rules
Feb-23 @ 22:00 UTC
(32 minutes ago)
VFR
Wind Visibility
290° at 5 knots 15 miles
Clouds
  • Broken at 4,600' AGL
  • Overcast at 28,000' AGL
Temperature Dewpoint
-15°C / 5°F -18°C / -0°F
Humidity Altimeter Pressure
78% 29.47" Hg 999.8 hPa